createdAt,value
2022-09-28T00:02:25.606Z,73.40
2022-09-28T00:04:52.470Z,73.50
2022-09-28T00:07:19.307Z,73.50
2022-09-28T00:09:46.073Z,73.60
2022-09-28T00:12:12.818Z,73.60
2022-09-28T00:14:40.640Z,73.50
2022-09-28T00:17:08.317Z,73.60
2022-09-28T00:19:35.094Z,73.50
2022-09-28T00:22:01.989Z,73.40
2022-09-28T00:24:29.590Z,73.40
2022-09-28T00:26:58.844Z,73.40
2022-09-28T00:29:26.555Z,73.50
2022-09-28T00:32:00.535Z,73.50
2022-09-28T00:34:27.952Z,73.40
2022-09-28T00:36:54.873Z,73.60
2022-09-28T00:39:21.677Z,73.60
2022-09-28T00:41:48.694Z,73.60
2022-09-28T00:44:24.585Z,73.90
2022-09-28T00:46:57.073Z,73.90
2022-09-28T00:49:33.239Z,73.90
2022-09-28T00:52:01.746Z,74.00
2022-09-28T00:54:28.990Z,74.00
2022-09-28T00:56:56.365Z,74.00
2022-09-28T00:59:24.821Z,74.00
2022-09-28T01:01:51.696Z,74.00
2022-09-28T01:04:18.496Z,74.10
2022-09-28T01:06:46.819Z,74.10
2022-09-28T01:09:15.391Z,74.10
2022-09-28T01:11:43.016Z,74.00
2022-09-28T01:14:14.405Z,74.10
2022-09-28T01:16:47.410Z,74.20
2022-09-28T01:19:31.588Z,73.90
2022-09-28T01:22:29.200Z,73.70
2022-09-28T01:24:58.913Z,73.60
2022-09-28T01:27:34.185Z,74.20
2022-09-28T01:30:09.109Z,74.30
2022-09-28T01:32:38.580Z,74.40
2022-09-28T01:35:20.653Z,74.30
2022-09-28T01:37:52.866Z,75.00
2022-09-28T01:40:22.756Z,74.30
2022-09-28T01:42:54.962Z,74.20
2022-09-28T01:45:31.111Z,74.30
2022-09-28T01:48:02.395Z,74.30
2022-09-28T01:50:33.980Z,75.00
2022-09-28T01:53:12.787Z,74.20
2022-09-28T01:55:48.216Z,74.20
2022-09-28T01:58:38.648Z,74.00
2022-09-28T02:01:24.742Z,74.20
2022-09-28T02:04:05.206Z,74.30
2022-09-28T02:06:40.647Z,74.30
2022-09-28T02:09:13.907Z,74.30
2022-09-28T02:11:45.768Z,74.00
2022-09-28T02:14:15.562Z,74.00
2022-09-28T02:16:50.432Z,74.10
2022-09-28T02:19:21.305Z,73.90
2022-09-28T02:22:13.675Z,74.00
2022-09-28T02:24:56.901Z,74.10
2022-09-28T02:27:29.697Z,73.80
2022-09-28T02:29:56.459Z,73.70
2022-09-28T02:32:26.229Z,73.50
2022-09-28T02:34:53.093Z,73.50
2022-09-28T02:37:19.969Z,73.40
2022-09-28T02:39:46.703Z,73.30
2022-09-28T02:42:23.845Z,73.20
2022-09-28T02:45:23.172Z,73.20
2022-09-28T02:48:11.812Z,73.40
2022-09-28T02:50:53.595Z,73.50
2022-09-28T02:53:38.865Z,73.50
2022-09-28T02:56:25.401Z,73.40
2022-09-28T02:59:22.109Z,73.60
2022-09-28T03:02:00.995Z,73.80
2022-09-28T03:04:37.064Z,73.90
2022-09-28T03:07:06.884Z,73.80
2022-09-28T03:09:49.524Z,73.80
2022-09-28T03:12:20.028Z,73.70
2022-09-28T03:14:46.870Z,73.60
2022-09-28T03:17:13.574Z,73.60
2022-09-28T03:19:40.379Z,73.60
2022-09-28T03:22:08.004Z,73.60
2022-09-28T03:24:35.017Z,73.80
2022-09-28T03:27:01.748Z,73.70
2022-09-28T03:29:31.350Z,73.70
2022-09-28T03:31:58.179Z,73.70
2022-09-28T03:34:24.921Z,73.60
2022-09-28T03:36:51.626Z,73.60
2022-09-28T03:39:18.552Z,73.50
2022-09-28T03:41:45.499Z,73.40
2022-09-28T03:44:12.268Z,73.40
2022-09-28T03:46:39.074Z,74.20
2022-09-28T03:49:05.812Z,73.30
2022-09-28T03:51:32.678Z,73.40
2022-09-28T03:53:59.622Z,73.20
2022-09-28T03:56:26.441Z,73.20
2022-09-28T03:58:53.172Z,73.20
2022-09-28T04:01:20.115Z,73.00
2022-09-28T04:03:47.697Z,72.90
2022-09-28T04:06:15.364Z,72.80
2022-09-28T04:08:43.409Z,72.70
2022-09-28T04:11:10.321Z,72.60
2022-09-28T04:13:37.360Z,72.50
2022-09-28T04:16:05.104Z,72.40
2022-09-28T04:18:32.780Z,72.40
2022-09-28T04:21:09.055Z,72.50
2022-09-28T04:23:37.273Z,72.40
2022-09-28T04:26:05.797Z,72.30
2022-09-28T04:28:51.126Z,72.30
2022-09-28T04:31:24.530Z,72.30
2022-09-28T04:33:51.485Z,72.30
2022-09-28T04:36:19.790Z,72.20
2022-09-28T04:38:53.242Z,72.30
2022-09-28T04:41:22.437Z,72.30
2022-09-28T04:43:49.938Z,72.20
2022-09-28T04:46:17.496Z,72.30
2022-09-28T04:48:44.362Z,72.20
2022-09-28T04:51:11.569Z,72.20
2022-09-28T04:53:38.465Z,72.20
2022-09-28T04:56:11.559Z,72.10
2022-09-28T04:58:38.624Z,72.90
2022-09-28T05:01:08.173Z,72.90
2022-09-28T05:03:35.835Z,72.00
2022-09-28T05:06:02.906Z,72.00
2022-09-28T05:08:30.386Z,71.80
2022-09-28T05:11:02.851Z,71.70
2022-09-28T05:13:30.952Z,71.60
2022-09-28T05:16:04.429Z,71.70
2022-09-28T05:18:32.240Z,71.70
2022-09-28T05:20:59.140Z,71.70
2022-09-28T05:23:25.923Z,71.70
2022-09-28T05:25:52.828Z,71.70
2022-09-28T05:28:29.158Z,71.70
2022-09-28T05:31:03.653Z,71.90
2022-09-28T05:33:31.425Z,72.60
2022-09-28T05:36:01.349Z,71.90
2022-09-28T05:38:29.890Z,71.90
2022-09-28T05:40:56.952Z,71.90
2022-09-28T05:43:23.964Z,71.80
2022-09-28T05:45:55.307Z,71.80
2022-09-28T05:48:23.301Z,71.80
2022-09-28T05:50:53.469Z,71.90
2022-09-28T05:53:20.422Z,72.00
2022-09-28T05:55:47.971Z,72.00
2022-09-28T05:58:14.787Z,72.10
2022-09-28T06:00:41.989Z,72.70
2022-09-28T06:03:11.900Z,72.00
2022-09-28T06:05:39.545Z,72.10
2022-09-28T06:08:08.516Z,72.10
2022-09-28T06:10:35.454Z,72.10
2022-09-28T06:13:02.432Z,72.10
2022-09-28T06:15:31.454Z,72.00
2022-09-28T06:18:03.496Z,72.20
2022-09-28T06:20:35.679Z,72.30
2022-09-28T06:23:02.746Z,72.50
2022-09-28T06:25:29.573Z,72.70
2022-09-28T06:28:04.686Z,72.80
2022-09-28T06:30:33.684Z,72.80
2022-09-28T06:33:02.159Z,73.00
2022-09-28T06:35:31.118Z,73.20
2022-09-28T06:37:59.337Z,73.40
2022-09-28T06:40:26.602Z,73.50
2022-09-28T06:43:00.259Z,73.50
2022-09-28T06:45:28.274Z,73.80
2022-09-28T06:47:57.438Z,74.00
2022-09-28T06:50:31.069Z,74.10
2022-09-28T06:52:58.262Z,74.30
2022-09-28T06:55:25.188Z,74.50
2022-09-28T06:57:59.331Z,74.40
2022-09-28T07:00:27.633Z,74.40
2022-09-28T07:02:54.491Z,74.30
2022-09-28T07:05:26.632Z,74.30
2022-09-28T07:07:57.274Z,74.50
2022-09-28T07:10:29.058Z,74.40
2022-09-28T07:12:57.185Z,74.40
2022-09-28T07:15:25.027Z,74.40
2022-09-28T07:18:02.638Z,74.40
2022-09-28T07:20:45.613Z,74.40
2022-09-28T07:23:19.354Z,74.30
2022-09-28T07:25:50.226Z,74.30
2022-09-28T07:28:21.156Z,74.40
2022-09-28T07:30:48.293Z,74.30
2022-09-28T07:33:17.183Z,74.30
2022-09-28T07:35:52.385Z,74.60
2022-09-28T07:38:19.443Z,74.60
2022-09-28T07:41:05.328Z,74.50
2022-09-28T07:43:32.873Z,74.90
2022-09-28T07:45:59.753Z,74.80
2022-09-28T07:48:26.754Z,74.80
2022-09-28T07:50:57.487Z,74.90
2022-09-28T07:53:25.706Z,74.90
2022-09-28T07:55:53.228Z,74.80
2022-09-28T07:58:20.693Z,74.80
2022-09-28T08:00:49.277Z,74.80
2022-09-28T08:03:18.273Z,74.80
2022-09-28T08:05:46.970Z,75.00
2022-09-28T08:08:14.908Z,74.90
2022-09-28T08:10:47.261Z,75.00
2022-09-28T08:13:16.315Z,75.10
2022-09-28T08:15:43.054Z,75.00
2022-09-28T08:18:10.392Z,75.20
2022-09-28T08:20:55.642Z,75.30
2022-09-28T08:23:23.630Z,75.30
2022-09-28T08:25:54.191Z,75.30
2022-09-28T08:28:22.725Z,75.60
2022-09-28T08:30:50.224Z,75.60
2022-09-28T08:33:20.281Z,75.50
2022-09-28T08:35:47.334Z,75.50
2022-09-28T08:38:15.312Z,75.40
2022-09-28T08:40:58.507Z,75.30
2022-09-28T08:44:04.117Z,75.20
2022-09-28T08:46:42.088Z,74.90
2022-09-28T08:49:31.220Z,75.10
2022-09-28T08:52:07.844Z,75.10
2022-09-28T08:55:13.808Z,75.20
2022-09-28T08:57:57.699Z,75.30
2022-09-28T09:00:48.606Z,75.20
2022-09-28T09:03:20.821Z,74.90
2022-09-28T09:06:23.540Z,75.00
2022-09-28T09:09:22.274Z,74.70
2022-09-28T09:12:00.803Z,75.30
2022-09-28T09:14:33.989Z,75.00
2022-09-28T09:17:26.067Z,74.80
2022-09-28T09:19:55.141Z,74.80
2022-09-28T09:22:45.984Z,74.90
2022-09-28T09:25:38.919Z,74.90
2022-09-28T09:28:28.715Z,74.70
2022-09-28T09:31:04.494Z,74.70
2022-09-28T09:33:53.520Z,74.60
2022-09-28T09:36:28.956Z,75.00
2022-09-28T09:39:18.943Z,74.70
2022-09-28T09:42:02.615Z,74.70
2022-09-28T09:45:05.076Z,74.80
2022-09-28T09:47:56.443Z,74.30
2022-09-28T09:50:59.834Z,74.20
2022-09-28T09:53:46.557Z,74.20
2022-09-28T09:56:26.798Z,74.30
2022-09-28T09:59:01.921Z,73.70
2022-09-28T10:01:41.055Z,73.80
2022-09-28T10:04:32.207Z,73.30
2022-09-28T10:07:06.655Z,72.50
2022-09-28T10:09:39.040Z,72.80
2022-09-28T10:12:12.179Z,71.60
2022-09-28T10:14:39.154Z,72.10
2022-09-28T10:17:06.004Z,71.80
2022-09-28T10:19:34.853Z,71.70
2022-09-28T10:22:05.414Z,72.00
2022-09-28T10:24:47.418Z,71.60
2022-09-28T10:27:17.163Z,71.50
2022-09-28T10:30:12.839Z,71.40
2022-09-28T10:32:47.412Z,71.30
2022-09-28T10:35:20.189Z,71.80
2022-09-28T10:38:14.210Z,72.00
2022-09-28T10:40:51.156Z,72.20
2022-09-28T10:43:23.512Z,72.20
2022-09-28T10:46:05.958Z,71.90
2022-09-28T10:48:56.043Z,71.20
2022-09-28T10:51:45.087Z,71.50
2022-09-28T10:54:20.465Z,70.40
2022-09-28T10:56:48.377Z,69.50
2022-09-28T10:59:30.404Z,70.40
2022-09-28T11:02:21.614Z,69.00
2022-09-28T11:04:55.255Z,69.80
2022-09-28T11:07:33.364Z,69.70
2022-09-28T11:10:01.431Z,69.10
2022-09-28T11:12:37.088Z,69.00
2022-09-28T11:15:07.341Z,68.70
2022-09-28T11:17:44.140Z,68.80
2022-09-28T11:20:28.467Z,68.90
2022-09-28T11:23:20.537Z,68.90
2022-09-28T11:25:59.935Z,69.30
2022-09-28T11:28:35.912Z,69.60
2022-09-28T11:31:04.043Z,69.50
2022-09-28T11:33:35.140Z,69.70
2022-09-28T11:36:13.910Z,70.10
2022-09-28T11:38:48.524Z,70.50
2022-09-28T11:41:44.257Z,70.60
2022-09-28T11:44:39.049Z,70.70
2022-09-28T11:47:35.997Z,70.80
2022-09-28T11:50:24.398Z,70.90
2022-09-28T11:52:56.887Z,71.10
2022-09-28T11:55:42.120Z,70.90
2022-09-28T11:58:27.650Z,70.60
2022-09-28T12:01:35.589Z,68.40
2022-09-28T12:04:33.970Z,68.50
2022-09-28T12:07:09.067Z,69.00
2022-09-28T12:10:10.430Z,69.00
2022-09-28T12:13:02.195Z,68.20
2022-09-28T12:16:06.283Z,67.70
2022-09-28T12:18:52.288Z,67.80
2022-09-28T12:21:25.575Z,67.50
2022-09-28T12:24:00.712Z,67.80
2022-09-28T12:26:42.021Z,67.70
2022-09-28T12:29:18.506Z,67.80
2022-09-28T12:32:02.221Z,67.60
2022-09-28T12:34:29.109Z,65.80
2022-09-28T12:37:21.872Z,66.50
2022-09-28T12:39:57.978Z,66.80
2022-09-28T12:42:46.284Z,67.50
2022-09-28T12:46:06.718Z,68.00
2022-09-28T12:49:51.539Z,67.50
2022-09-28T12:52:00.272Z,66.40
2022-09-28T12:54:54.287Z,66.30
2022-09-28T12:57:29.937Z,66.80
2022-09-28T13:00:13.275Z,67.10
2022-09-28T13:02:58.262Z,66.20
2022-09-28T13:05:51.439Z,66.40
2022-09-28T13:08:41.335Z,67.10
2022-09-28T13:11:36.870Z,67.60
2022-09-28T13:14:13.843Z,67.00
2022-09-28T13:17:00.748Z,67.10
2022-09-28T13:19:58.103Z,67.40
2022-09-28T13:22:44.074Z,66.60
2022-09-28T13:25:19.231Z,66.90
2022-09-28T13:27:55.222Z,67.20
2022-09-28T13:30:22.665Z,66.80
2022-09-28T13:32:50.298Z,67.00
2022-09-28T13:35:21.383Z,66.60
2022-09-28T13:37:48.784Z,66.00
2022-09-28T13:40:15.778Z,65.80
2022-09-28T13:42:55.808Z,65.40
2022-09-28T13:45:33.897Z,65.30
2022-09-28T13:49:02.025Z,65.20
2022-09-28T13:51:42.121Z,64.90
2022-09-28T13:54:26.834Z,65.40
2022-09-28T13:57:12.009Z,65.80
2022-09-28T14:00:15.562Z,65.40
2022-09-28T14:02:45.605Z,64.90
2022-09-28T14:05:27.112Z,65.00
2022-09-28T14:08:09.189Z,64.60
2022-09-28T14:10:53.659Z,64.50
2022-09-28T14:13:42.017Z,64.10
2022-09-28T14:16:35.545Z,64.30
2022-09-28T14:19:07.154Z,64.00
2022-09-28T14:22:17.798Z,64.60
2022-09-28T14:25:09.325Z,65.10
2022-09-28T14:27:38.923Z,65.60
2022-09-28T14:30:44.678Z,65.80
2022-09-28T14:33:20.608Z,66.30
2022-09-28T14:35:56.511Z,67.20
2022-09-28T14:38:49.442Z,66.60
2022-09-28T14:41:41.857Z,66.80
2022-09-28T14:44:09.496Z,67.00
2022-09-28T14:46:39.186Z,66.90
2022-09-28T14:49:19.512Z,67.00
2022-09-28T14:51:57.883Z,67.00
2022-09-28T14:54:31.305Z,67.10
2022-09-28T14:57:09.340Z,67.00
2022-09-28T14:59:44.303Z,67.00
2022-09-28T15:02:10.993Z,67.00
2022-09-28T15:04:43.397Z,66.90
2022-09-28T15:07:34.291Z,66.80
2022-09-28T15:10:02.715Z,66.40
2022-09-28T15:12:32.666Z,66.40
2022-09-28T15:15:02.410Z,66.30
2022-09-28T15:17:37.066Z,66.30
2022-09-28T15:20:52.094Z,66.50
2022-09-28T15:23:33.047Z,67.10
2022-09-28T15:26:00.370Z,67.10
2022-09-28T15:28:27.471Z,67.20
2022-09-28T15:31:02.650Z,67.40
2022-09-28T15:33:50.586Z,67.60
2022-09-28T15:36:27.908Z,67.90
2022-09-28T15:39:03.174Z,68.10
2022-09-28T15:41:31.201Z,68.50
2022-09-28T15:44:07.235Z,68.40
2022-09-28T15:46:35.978Z,68.60
2022-09-28T15:49:04.753Z,68.50
2022-09-28T15:51:46.049Z,68.50
2022-09-28T15:54:31.232Z,68.10
2022-09-28T15:57:02.829Z,68.60
2022-09-28T15:59:39.352Z,68.90
2022-09-28T16:02:18.623Z,69.20
2022-09-28T16:04:53.020Z,69.30
2022-09-28T16:07:34.494Z,69.30
2022-09-28T16:10:04.673Z,69.30
2022-09-28T16:12:42.685Z,69.30
2022-09-28T16:15:20.281Z,69.40
2022-09-28T16:17:55.189Z,69.30
2022-09-28T16:20:23.800Z,69.00
2022-09-28T16:22:50.801Z,69.00
2022-09-28T16:25:24.498Z,69.30
2022-09-28T16:27:53.693Z,69.70
2022-09-28T16:30:30.092Z,69.80
2022-09-28T16:33:02.310Z,69.90
2022-09-28T16:35:30.899Z,69.80
2022-09-28T16:37:59.005Z,69.90
2022-09-28T16:40:26.742Z,68.00
2022-09-28T16:42:57.455Z,67.40
2022-09-28T16:45:24.489Z,66.90
2022-09-28T16:47:52.460Z,66.70
2022-09-28T16:50:23.204Z,66.80
2022-09-28T16:53:22.880Z,66.50
2022-09-28T16:55:49.954Z,66.10
2022-09-28T16:58:16.890Z,66.20
2022-09-28T17:00:43.669Z,66.70
2022-09-28T17:03:18.451Z,67.00
2022-09-28T17:05:46.650Z,67.10
2022-09-28T17:08:18.581Z,66.90
2022-09-28T17:11:13.947Z,67.10
2022-09-28T17:13:44.064Z,67.30
2022-09-28T17:16:28.149Z,68.30
2022-09-28T17:19:22.432Z,67.80
2022-09-28T17:21:51.002Z,68.20
2022-09-28T17:24:18.971Z,68.20
2022-09-28T17:26:49.059Z,68.50
2022-09-28T17:29:16.054Z,68.90
2022-09-28T17:31:44.480Z,69.00
2022-09-28T17:34:12.651Z,69.10
2022-09-28T17:36:41.751Z,69.10
2022-09-28T17:39:16.495Z,69.20
2022-09-28T17:41:43.603Z,69.40
2022-09-28T17:44:10.814Z,69.40
2022-09-28T17:46:40.696Z,69.40
2022-09-28T17:49:11.508Z,69.60
2022-09-28T17:51:38.718Z,69.50
2022-09-28T17:54:08.048Z,69.60
2022-09-28T17:56:35.953Z,69.60
2022-09-28T17:59:10.128Z,69.70
2022-09-28T18:01:39.151Z,69.70
2022-09-28T18:04:08.857Z,69.70
2022-09-28T18:06:39.199Z,69.80
2022-09-28T18:09:05.958Z,69.60
2022-09-28T18:11:33.846Z,69.80
2022-09-28T18:14:00.871Z,69.70
2022-09-28T18:16:28.972Z,69.80
2022-09-28T18:18:55.998Z,69.80
2022-09-28T18:21:22.814Z,69.80
2022-09-28T18:23:49.634Z,69.70
2022-09-28T18:26:18.988Z,69.80
2022-09-28T18:28:45.869Z,69.80
2022-09-28T18:31:15.113Z,69.80
2022-09-28T18:33:42.158Z,69.60
2022-09-28T18:36:08.961Z,69.60
2022-09-28T18:38:36.923Z,69.40
2022-09-28T18:41:11.408Z,69.20
2022-09-28T18:43:38.177Z,69.20
2022-09-28T18:46:09.476Z,69.00
2022-09-28T18:48:37.669Z,68.90
2022-09-28T18:51:08.829Z,69.00
2022-09-28T18:53:36.017Z,68.90
2022-09-28T18:56:10.803Z,68.90
2022-09-28T18:58:39.525Z,68.80
2022-09-28T19:01:32.176Z,68.80
2022-09-28T19:04:05.454Z,68.80
2022-09-28T19:06:34.283Z,68.80
2022-09-28T19:09:01.570Z,68.70
2022-09-28T19:11:28.847Z,68.90
2022-09-28T19:13:56.139Z,68.70
2022-09-28T19:16:25.930Z,68.70
2022-09-28T19:18:53.640Z,68.70
2022-09-28T19:21:21.085Z,68.50
2022-09-28T19:23:53.594Z,68.50
2022-09-28T19:26:26.877Z,68.50
2022-09-28T19:28:55.505Z,68.40
2022-09-28T19:31:22.997Z,68.40
2022-09-28T19:33:50.475Z,68.30
2022-09-28T19:36:19.874Z,68.30
2022-09-28T19:38:46.681Z,68.30
2022-09-28T19:41:39.459Z,68.20
2022-09-28T19:44:29.673Z,68.30
2022-09-28T19:47:09.859Z,68.20
2022-09-28T19:49:38.663Z,68.30
2022-09-28T19:52:18.219Z,68.40
2022-09-28T19:54:56.596Z,68.40
2022-09-28T19:57:26.132Z,68.30
2022-09-28T19:59:57.815Z,68.40
2022-09-28T20:02:27.998Z,68.10
2022-09-28T20:04:54.837Z,68.90
2022-09-28T20:07:21.583Z,68.10
2022-09-28T20:09:48.326Z,68.10
2022-09-28T20:12:15.070Z,67.90
2022-09-28T20:14:41.859Z,68.00
2022-09-28T20:17:09.414Z,67.90
2022-09-28T20:19:36.187Z,68.00
2022-09-28T20:22:03.535Z,68.00
2022-09-28T20:24:31.212Z,68.00
2022-09-28T20:26:58.526Z,68.00
2022-09-28T20:29:25.342Z,67.90
2022-09-28T20:31:52.252Z,67.90
2022-09-28T20:34:19.058Z,67.90
2022-09-28T20:36:45.826Z,67.90
2022-09-28T20:39:13.058Z,67.90
2022-09-28T20:41:40.308Z,68.00
2022-09-28T20:44:07.518Z,68.00
2022-09-28T20:46:35.793Z,67.90
2022-09-28T20:49:03.619Z,68.00
2022-09-28T20:51:30.619Z,68.00
2022-09-28T20:53:58.938Z,68.10
2022-09-28T20:56:26.937Z,68.20
2022-09-28T20:58:54.473Z,68.20
2022-09-28T21:01:29.901Z,68.20
2022-09-28T21:04:02.089Z,68.40
2022-09-28T21:06:33.553Z,68.50
2022-09-28T21:09:00.591Z,68.60
2022-09-28T21:11:28.653Z,68.70
2022-09-28T21:14:00.367Z,68.90
2022-09-28T21:16:29.224Z,68.80
2022-09-28T21:18:56.212Z,68.70
2022-09-28T21:21:24.173Z,68.90
2022-09-28T21:23:55.295Z,69.00
2022-09-28T21:26:25.100Z,69.00
2022-09-28T21:29:18.389Z,69.00
2022-09-28T21:31:46.703Z,68.70
2022-09-28T21:34:15.012Z,68.90
2022-09-28T21:36:43.335Z,68.80
2022-09-28T21:39:10.589Z,68.60
2022-09-28T21:41:37.834Z,68.60
2022-09-28T21:44:05.056Z,68.40
2022-09-28T21:46:34.766Z,68.40
2022-09-28T21:49:03.930Z,68.30
2022-09-28T21:51:31.237Z,68.40
2022-09-28T21:53:58.055Z,68.40
2022-09-28T21:56:25.274Z,68.40
2022-09-28T21:58:52.492Z,68.50
2022-09-28T22:01:22.190Z,68.50
2022-09-28T22:03:51.608Z,68.50
2022-09-28T22:06:20.390Z,68.50
2022-09-28T22:08:48.197Z,68.70
2022-09-28T22:11:18.207Z,69.30
2022-09-28T22:13:50.097Z,68.60
2022-09-28T22:16:18.681Z,68.60
2022-09-28T22:18:45.732Z,68.80
2022-09-28T22:21:21.736Z,68.80
2022-09-28T22:23:48.888Z,68.90
2022-09-28T22:26:19.073Z,68.80
2022-09-28T22:28:48.291Z,68.80
2022-09-28T22:31:16.179Z,68.60
2022-09-28T22:33:43.297Z,68.50
2022-09-28T22:36:10.326Z,68.50
2022-09-28T22:38:37.659Z,68.30
2022-09-28T22:41:04.441Z,68.40
2022-09-28T22:43:31.772Z,68.30
2022-09-28T22:46:26.209Z,68.30
2022-09-28T22:48:55.454Z,68.30
2022-09-28T22:51:23.541Z,68.30
2022-09-28T22:53:50.290Z,68.40
2022-09-28T22:56:19.206Z,68.40
2022-09-28T22:58:46.473Z,68.60
2022-09-28T23:01:24.468Z,68.70
2022-09-28T23:03:52.610Z,68.70
2022-09-28T23:06:21.216Z,68.50
2022-09-28T23:08:48.672Z,68.50
2022-09-28T23:11:15.781Z,68.50
2022-09-28T23:13:42.663Z,68.40
2022-09-28T23:16:12.111Z,68.40
2022-09-28T23:18:43.725Z,68.40
2022-09-28T23:21:15.199Z,68.50
2022-09-28T23:23:43.264Z,68.60
2022-09-28T23:26:16.172Z,68.60
2022-09-28T23:28:43.549Z,68.60
2022-09-28T23:31:15.553Z,68.60
2022-09-28T23:33:42.438Z,68.50
2022-09-28T23:36:09.610Z,68.50
2022-09-28T23:38:36.532Z,68.50
2022-09-28T23:41:03.390Z,68.30
2022-09-28T23:43:30.089Z,68.50
2022-09-28T23:45:56.902Z,68.50
2022-09-28T23:48:23.724Z,68.40
2022-09-28T23:50:50.551Z,68.70
2022-09-28T23:53:17.273Z,68.70
2022-09-28T23:55:43.997Z,68.80
2022-09-28T23:58:11.556Z,68.80
